Time;durP1;ratioP1;P1;durP2;ratioP2;P2;SDS_P1;SDS_P2;PMS_P1;PMS_P2;Temp;Humidity;BMP_temperature;BMP_pressure;BME280_temperature;BME280_humidity;BME280_pressure;Samples;Min_cycle;Max_cycle;Signal;HPM_P1;HPM_P2
2023/05/06 00:01:13;;;;;;;;;;;12.30;99.90;;;;;;5138412;27;19930;-71
2023/05/06 00:03:39;;;;;;;;;;;12.40;99.90;;;;;;5152075;27;19919;-71
2023/05/06 00:06:06;;;;;;;;;;;12.20;99.90;;;;;;5150581;27;19915;-71
2023/05/06 00:08:31;;;;;;;;;;;12.20;99.90;;;;;;5139535;27;19919;-70
2023/05/06 00:10:57;;;;;;;;;;;12.20;99.90;;;;;;5113119;27;20286;-70
2023/05/06 00:13:23;;;;;;;;;;;12.30;99.90;;;;;;5149824;27;20034;-71
2023/05/06 00:15:48;;;;;;;;;;;12.10;99.90;;;;;;5132707;27;19915;-70
2023/05/06 00:18:14;;;;;;;;;;;12.20;99.90;;;;;;5114613;27;20290;-70
2023/05/06 00:20:40;;;;;;;;;;;12.20;99.90;;;;;;5097171;27;19962;-71
2023/05/06 00:23:06;;;;;;;;;;;12.20;99.90;;;;;;5146380;27;19919;-71
2023/05/06 00:25:31;;;;;;;;;;;12.00;99.90;;;;;;5127131;27;20255;-71
2023/05/06 00:27:57;;;;;;;;;;;11.90;99.90;;;;;;5140273;27;19915;-71
2023/05/06 00:30:24;;;;;;;;;;;12.00;99.90;;;;;;5130650;27;20383;-71
2023/05/06 00:32:50;;;;;;;;;;;12.00;99.90;;;;;;5130788;27;19919;-71
2023/05/06 00:35:15;;;;;;;;;;;11.80;99.90;;;;;;5130747;27;19964;-71
2023/05/06 00:37:43;;;;;;;;;;;11.80;99.90;;;;;;5134761;27;19915;-72
2023/05/06 00:40:09;;;;;;;;;;;11.90;99.90;;;;;;5130848;27;19927;-71
2023/05/06 00:42:35;;;;;;;;;;;11.90;99.90;;;;;;5129176;27;19915;-71
2023/05/06 00:45:00;;;;;;;;;;;11.70;99.90;;;;;;5129676;27;19933;-71
2023/05/06 00:47:26;;;;;;;;;;;11.80;99.90;;;;;;5115757;27;19925;-71
2023/05/06 00:49:51;;;;;;;;;;;11.70;99.90;;;;;;5130764;27;19930;-71
2023/05/06 00:52:18;;;;;;;;;;;11.50;99.90;;;;;;5137187;27;19954;-71
2023/05/06 00:54:43;;;;;;;;;;;11.70;99.90;;;;;;5131220;27;19919;-71
2023/05/06 00:57:09;;;;;;;;;;;11.70;99.90;;;;;;5135509;27;19976;-71
2023/05/06 00:59:34;;;;;;;;;;;11.60;99.90;;;;;;5127830;27;19919;-71
2023/05/06 01:02:00;;;;;;;;;;;11.60;99.90;;;;;;5134007;27;20401;-71
2023/05/06 01:04:27;;;;;;;;;;;11.50;99.90;;;;;;5150889;27;19915;-71
2023/05/06 01:06:56;;;;;;;;;;;11.60;99.90;;;;;;5120750;27;19934;-71
2023/05/06 01:09:28;;;;;;;;;;;11.80;99.90;;;;;;5100938;28;19924;-71
2023/05/06 01:11:58;;;;;;;;;;;11.70;99.90;;;;;;5101099;27;19919;-72
2023/05/06 01:14:52;;;;;;;;;;;11.80;99.90;;;;;;5129683;28;20008;-71
2023/05/06 01:17:19;;;;;;;;;;;11.80;99.90;;;;;;5106553;28;19915;-71
2023/05/06 01:19:52;;;;;;;;;;;11.60;99.90;;;;;;5100496;27;19919;-71
2023/05/06 01:22:18;;;;;;;;;;;11.80;99.90;;;;;;5133771;27;19918;-72
2023/05/06 01:24:44;;;;;;;;;;;11.70;99.90;;;;;;5132592;27;19966;-70
2023/05/06 01:27:11;;;;;;;;;;;11.90;99.90;;;;;;5138409;27;20393;-70
2023/05/06 01:29:40;;;;;;;;;;;12.00;99.90;;;;;;5132525;27;19923;-70
2023/05/06 01:32:25;;;;;;;;;;;11.80;99.90;;;;;;5124872;27;19951;-70
2023/05/06 01:34:55;;;;;;;;;;;12.00;99.90;;;;;;5132227;27;19959;-71
2023/05/06 01:37:23;;;;;;;;;;;11.90;99.90;;;;;;5137225;27;19915;-70
2023/05/06 01:39:49;;;;;;;;;;;12.10;99.90;;;;;;5135016;27;20013;-70
2023/05/06 01:42:15;;;;;;;;;;;12.10;99.90;;;;;;5133991;27;20371;-70
2023/05/06 01:44:42;;;;;;;;;;;12.00;99.90;;;;;;5116238;27;19915;-69
2023/05/06 01:47:09;;;;;;;;;;;12.00;99.90;;;;;;5131638;27;19915;-70
2023/05/06 01:49:35;;;;;;;;;;;11.70;99.90;;;;;;5128906;27;21522;-70
2023/05/06 01:52:00;;;;;;;;;;;11.70;99.90;;;;;;5128637;27;19922;-70
2023/05/06 01:54:26;;;;;;;;;;;11.90;99.90;;;;;;5098792;28;19916;-71
2023/05/06 01:56:53;;;;;;;;;;;11.60;99.90;;;;;;5127310;27;19930;-71
2023/05/06 01:59:18;;;;;;;;;;;11.60;99.90;;;;;;5136507;27;19927;-71
2023/05/06 02:01:44;;;;;;;;;;;11.80;99.90;;;;;;5105252;28;19915;-71
2023/05/06 02:04:09;;;;;;;;;;;11.60;99.90;;;;;;5114691;27;20059;-71
2023/05/06 02:06:35;;;;;;;;;;;11.50;99.90;;;;;;5112441;27;19916;-71
2023/05/06 02:09:00;;;;;;;;;;;11.40;99.90;;;;;;5135915;27;19915;-71
2023/05/06 02:11:26;;;;;;;;;;;11.50;99.90;;;;;;5131512;27;19926;-71
2023/05/06 02:13:52;;;;;;;;;;;11.30;99.90;;;;;;5122499;27;19927;-70
2023/05/06 02:16:17;;;;;;;;;;;11.30;99.90;;;;;;5122093;27;19919;-70
2023/05/06 02:18:43;;;;;;;;;;;11.30;99.90;;;;;;5134030;27;19915;-70
2023/05/06 02:21:09;;;;;;;;;;;11.20;99.90;;;;;;5140813;27;19963;-70
2023/05/06 02:23:34;;;;;;;;;;;11.10;99.90;;;;;;5141299;27;19915;-70
2023/05/06 02:26:00;;;;;;;;;;;11.20;99.90;;;;;;5116314;27;19926;-70
2023/05/06 02:28:25;;;;;;;;;;;11.30;99.90;;;;;;5129457;27;19925;-70
2023/05/06 02:30:57;;;;;;;;;;;11.00;99.90;;;;;;5138061;27;19923;-70
2023/05/06 02:33:23;;;;;;;;;;;11.20;99.90;;;;;;5138531;27;19919;-70
2023/05/06 02:35:49;;;;;;;;;;;10.90;99.90;;;;;;5127369;27;19938;-71
2023/05/06 02:38:15;;;;;;;;;;;11.00;99.90;;;;;;5136567;27;20370;-71
2023/05/06 02:40:40;;;;;;;;;;;11.00;99.90;;;;;;5132986;27;19919;-71
2023/05/06 02:43:06;;;;;;;;;;;10.80;99.90;;;;;;5120630;27;20327;-71
2023/05/06 02:45:31;;;;;;;;;;;10.80;99.90;;;;;;5136935;27;19970;-71
2023/05/06 02:47:57;;;;;;;;;;;11.00;99.90;;;;;;5125945;27;19930;-71
2023/05/06 02:50:22;;;;;;;;;;;10.70;99.90;;;;;;5132813;27;19927;-71
2023/05/06 02:52:48;;;;;;;;;;;10.60;99.90;;;;;;5133275;27;19966;-71
2023/05/06 02:55:13;;;;;;;;;;;10.70;99.90;;;;;;5133923;27;20235;-71
2023/05/06 02:57:39;;;;;;;;;;;10.80;99.90;;;;;;5116489;27;19919;-71
2023/05/06 03:00:05;;;;;;;;;;;10.60;99.90;;;;;;5139113;27;19920;-71
2023/05/06 03:02:30;;;;;;;;;;;10.70;99.90;;;;;;5132385;27;19926;-70
2023/05/06 03:04:56;;;;;;;;;;;10.60;99.90;;;;;;5146519;27;19915;-71
2023/05/06 03:07:22;;;;;;;;;;;10.40;99.90;;;;;;5121360;27;19949;-71
2023/05/06 03:09:47;;;;;;;;;;;10.50;99.90;;;;;;5121928;27;20389;-71
2023/05/06 03:12:13;;;;;;;;;;;10.30;99.90;;;;;;5132865;27;19918;-71
2023/05/06 03:14:38;;;;;;;;;;;10.30;99.90;;;;;;5122471;27;20271;-71
2023/05/06 03:17:04;;;;;;;;;;;10.50;99.90;;;;;;5110843;27;19923;-71
2023/05/06 03:19:30;;;;;;;;;;;10.20;99.90;;;;;;5132716;27;20435;-71
2023/05/06 03:21:55;;;;;;;;;;;10.30;99.90;;;;;;5132436;27;19938;-71
2023/05/06 03:24:21;;;;;;;;;;;10.40;99.90;;;;;;5137440;27;19961;-71
2023/05/06 03:26:46;;;;;;;;;;;10.20;99.90;;;;;;5153057;27;19919;-71
2023/05/06 03:29:12;;;;;;;;;;;10.30;99.90;;;;;;5140075;27;19924;-71
2023/05/06 03:31:37;;;;;;;;;;;10.20;99.90;;;;;;5114953;27;20367;-71
2023/05/06 03:34:03;;;;;;;;;;;10.30;99.90;;;;;;5124931;27;20000;-71
2023/05/06 03:36:30;;;;;;;;;;;10.20;99.90;;;;;;5133666;27;19919;-71
2023/05/06 03:38:56;;;;;;;;;;;10.00;99.90;;;;;;5141959;27;19968;-71
2023/05/06 03:41:22;;;;;;;;;;;10.10;99.90;;;;;;5131672;27;19958;-71
2023/05/06 03:43:47;;;;;;;;;;;10.00;99.90;;;;;;5114478;27;19919;-71
2023/05/06 03:46:13;;;;;;;;;;;9.90;99.90;;;;;;5151178;27;19919;-71
2023/05/06 03:48:38;;;;;;;;;;;9.90;99.90;;;;;;5144704;27;19966;-71
2023/05/06 03:51:04;;;;;;;;;;;9.80;99.90;;;;;;5130263;27;20268;-71
2023/05/06 03:53:30;;;;;;;;;;;9.90;99.90;;;;;;5152225;27;19921;-71
2023/05/06 03:55:55;;;;;;;;;;;9.90;99.90;;;;;;5118609;27;19988;-71
2023/05/06 03:58:21;;;;;;;;;;;9.80;99.90;;;;;;5136480;27;19915;-71
2023/05/06 04:00:47;;;;;;;;;;;9.90;99.90;;;;;;5137163;27;19926;-72
2023/05/06 04:03:12;;;;;;;;;;;10.10;99.90;;;;;;5131314;27;20366;-71
2023/05/06 04:05:38;;;;;;;;;;;10.20;99.90;;;;;;5114795;27;19959;-71
2023/05/06 04:08:03;;;;;;;;;;;10.20;99.90;;;;;;5100312;27;20618;-71
2023/05/06 04:10:29;;;;;;;;;;;10.20;99.90;;;;;;5140323;27;20437;-71
2023/05/06 04:12:55;;;;;;;;;;;10.00;99.90;;;;;;5131567;27;20107;-71
2023/05/06 04:15:21;;;;;;;;;;;10.00;99.90;;;;;;5141025;27;19919;-71
2023/05/06 04:17:47;;;;;;;;;;;10.30;99.90;;;;;;5151944;27;20570;-71
2023/05/06 04:20:13;;;;;;;;;;;10.30;99.90;;;;;;5122467;27;19922;-71
2023/05/06 04:22:39;;;;;;;;;;;10.40;99.90;;;;;;5151777;27;19926;-71
2023/05/06 04:25:05;;;;;;;;;;;10.30;99.90;;;;;;5108589;27;19914;-71
2023/05/06 04:27:31;;;;;;;;;;;10.00;99.90;;;;;;5134616;27;19942;-71
2023/05/06 04:29:57;;;;;;;;;;;10.30;99.90;;;;;;5133680;27;19923;-71
2023/05/06 04:32:25;;;;;;;;;;;10.00;99.90;;;;;;5130826;27;19938;-71
2023/05/06 04:34:52;;;;;;;;;;;10.00;99.90;;;;;;5131113;27;20006;-71
2023/05/06 04:37:20;;;;;;;;;;;10.10;99.90;;;;;;5131158;27;19919;-71
2023/05/06 04:39:46;;;;;;;;;;;10.10;99.90;;;;;;5144427;27;19997;-71
2023/05/06 04:42:12;;;;;;;;;;;10.30;99.90;;;;;;5130188;27;20386;-71
2023/05/06 04:44:38;;;;;;;;;;;10.50;99.90;;;;;;5130669;27;19962;-71
2023/05/06 04:47:04;;;;;;;;;;;10.30;99.90;;;;;;5150868;27;20015;-71
2023/05/06 04:49:29;;;;;;;;;;;10.50;99.90;;;;;;5133153;27;20281;-71
2023/05/06 04:51:55;;;;;;;;;;;10.30;99.90;;;;;;5133984;27;19919;-71
2023/05/06 04:54:21;;;;;;;;;;;10.70;99.90;;;;;;5095496;28;20390;-71
2023/05/06 04:56:47;;;;;;;;;;;10.50;99.90;;;;;;5131889;27;19981;-71
2023/05/06 04:59:12;;;;;;;;;;;10.90;99.90;;;;;;5128252;27;19914;-71
2023/05/06 05:01:38;;;;;;;;;;;10.70;99.90;;;;;;5121872;27;20048;-72
2023/05/06 05:04:03;;;;;;;;;;;10.80;99.90;;;;;;5110238;27;20657;-71
2023/05/06 05:06:30;;;;;;;;;;;10.90;99.90;;;;;;5141911;27;20254;-71
2023/05/06 05:08:56;;;;;;;;;;;11.10;99.90;;;;;;5139231;27;19915;-71
2023/05/06 05:11:22;;;;;;;;;;;11.20;99.90;;;;;;5120579;27;20404;-71
2023/05/06 05:13:47;;;;;;;;;;;11.30;99.90;;;;;;5128756;27;20286;-71
2023/05/06 05:16:13;;;;;;;;;;;11.30;99.90;;;;;;5137995;27;19951;-71
2023/05/06 05:18:38;;;;;;;;;;;11.60;99.90;;;;;;5124892;27;20316;-71
2023/05/06 05:21:04;;;;;;;;;;;11.80;99.90;;;;;;5122085;27;19927;-71
2023/05/06 05:23:29;;;;;;;;;;;11.90;99.90;;;;;;5095628;28;19998;-72
2023/05/06 05:25:55;;;;;;;;;;;11.70;99.90;;;;;;5131126;27;19925;-72
2023/05/06 05:28:20;;;;;;;;;;;11.80;99.90;;;;;;5117641;27;20033;-72
2023/05/06 05:30:46;;;;;;;;;;;11.90;99.90;;;;;;5122215;27;19927;-73
2023/05/06 05:33:12;;;;;;;;;;;11.90;99.90;;;;;;5138537;27;20002;-72
2023/05/06 05:35:37;;;;;;;;;;;12.00;99.90;;;;;;5131677;27;19919;-72
2023/05/06 05:38:03;;;;;;;;;;;12.10;99.90;;;;;;5093119;28;19916;-72
2023/05/06 05:40:28;;;;;;;;;;;12.10;99.90;;;;;;5105416;28;20403;-72
2023/05/06 05:42:54;;;;;;;;;;;12.00;99.90;;;;;;5114138;28;19961;-71
2023/05/06 05:45:20;;;;;;;;;;;11.90;99.90;;;;;;5109088;28;19929;-71
2023/05/06 05:47:45;;;;;;;;;;;12.10;99.90;;;;;;5110981;28;19963;-71
2023/05/06 05:50:11;;;;;;;;;;;12.00;99.90;;;;;;5092330;28;20002;-71
2023/05/06 05:52:36;;;;;;;;;;;11.90;99.90;;;;;;5118830;28;19920;-71
2023/05/06 05:55:02;;;;;;;;;;;12.20;99.90;;;;;;5117313;28;19968;-71
2023/05/06 05:57:28;;;;;;;;;;;12.30;99.90;;;;;;5119219;27;19930;-72
2023/05/06 05:59:53;;;;;;;;;;;12.00;99.90;;;;;;5130295;27;20002;-72
2023/05/06 06:02:19;;;;;;;;;;;12.20;99.90;;;;;;5118505;27;19919;-72
2023/05/06 06:04:45;;;;;;;;;;;12.40;99.90;;;;;;5127653;27;20293;-72
2023/05/06 06:07:10;;;;;;;;;;;12.40;99.90;;;;;;5124167;27;20422;-72
2023/05/06 06:09:36;;;;;;;;;;;12.30;99.90;;;;;;5152529;27;19929;-72
2023/05/06 06:12:01;;;;;;;;;;;12.30;99.90;;;;;;5123224;27;19981;-72
2023/05/06 06:14:27;;;;;;;;;;;12.40;99.90;;;;;;5140396;27;19944;-72
2023/05/06 06:16:52;;;;;;;;;;;12.50;99.90;;;;;;5133422;27;19915;-72
2023/05/06 06:19:18;;;;;;;;;;;12.30;99.90;;;;;;5121119;27;19920;-72
2023/05/06 06:21:44;;;;;;;;;;;12.30;99.90;;;;;;5122693;27;19923;-72
2023/05/06 06:24:09;;;;;;;;;;;12.30;99.90;;;;;;5102326;27;19919;-72
2023/05/06 06:26:35;;;;;;;;;;;12.50;99.90;;;;;;5120785;27;19915;-72
2023/05/06 06:29:00;;;;;;;;;;;12.40;99.90;;;;;;5124445;27;20389;-72
2023/05/06 06:31:28;;;;;;;;;;;12.40;99.90;;;;;;5139146;27;19920;-71
2023/05/06 06:33:54;;;;;;;;;;;12.50;99.90;;;;;;5118147;27;19953;-71
2023/05/06 06:36:20;;;;;;;;;;;12.40;99.90;;;;;;5129046;27;20370;-72
2023/05/06 06:38:45;;;;;;;;;;;12.50;99.90;;;;;;5122502;27;19926;-72
2023/05/06 06:41:11;;;;;;;;;;;12.60;99.90;;;;;;5129250;27;19942;-72
2023/05/06 06:43:36;;;;;;;;;;;12.40;99.90;;;;;;5133453;27;19970;-72
2023/05/06 06:46:02;;;;;;;;;;;12.60;99.90;;;;;;5095581;27;19927;-72
2023/05/06 06:48:28;;;;;;;;;;;12.60;99.90;;;;;;5121350;27;19976;-73
2023/05/06 06:50:54;;;;;;;;;;;12.60;99.90;;;;;;5153439;27;20414;-72
2023/05/06 06:53:19;;;;;;;;;;;12.70;99.90;;;;;;5129091;27;19930;-72
2023/05/06 06:55:45;;;;;;;;;;;12.60;99.90;;;;;;5132368;27;19919;-72
2023/05/06 06:58:11;;;;;;;;;;;12.80;99.90;;;;;;5132512;27;19931;-72
2023/05/06 07:00:36;;;;;;;;;;;12.60;99.90;;;;;;5136153;27;19964;-72
2023/05/06 07:03:02;;;;;;;;;;;12.70;99.90;;;;;;5136661;27;20420;-72
2023/05/06 07:05:27;;;;;;;;;;;12.70;99.90;;;;;;5152230;27;19915;-72
2023/05/06 07:07:54;;;;;;;;;;;12.60;99.90;;;;;;5136009;27;20014;-72
2023/05/06 07:10:20;;;;;;;;;;;12.80;99.90;;;;;;5135087;27;19923;-72
2023/05/06 07:12:45;;;;;;;;;;;12.80;99.90;;;;;;5132431;27;20381;-73
2023/05/06 07:15:11;;;;;;;;;;;12.80;99.90;;;;;;5116098;27;19938;-73
2023/05/06 07:17:37;;;;;;;;;;;12.80;99.90;;;;;;5132837;27;20325;-73
2023/05/06 07:20:02;;;;;;;;;;;13.00;99.90;;;;;;5123525;27;19983;-73
2023/05/06 07:22:28;;;;;;;;;;;13.00;99.90;;;;;;5128208;27;19926;-72
2023/05/06 07:24:54;;;;;;;;;;;13.00;99.90;;;;;;5126045;27;19930;-73
2023/05/06 07:27:19;;;;;;;;;;;13.00;99.90;;;;;;5131243;27;19915;-73
2023/05/06 07:29:45;;;;;;;;;;;12.90;99.90;;;;;;5130526;27;19919;-73
2023/05/06 07:32:10;;;;;;;;;;;13.00;99.90;;;;;;5128410;27;19920;-73
2023/05/06 07:34:37;;;;;;;;;;;13.00;99.90;;;;;;5115441;27;19916;-73
2023/05/06 07:37:03;;;;;;;;;;;13.10;99.90;;;;;;5122303;27;19926;-71
2023/05/06 07:39:29;;;;;;;;;;;13.00;99.90;;;;;;5130544;27;20435;-71
2023/05/06 07:41:55;;;;;;;;;;;13.00;99.90;;;;;;5115916;27;19923;-71
2023/05/06 07:44:20;;;;;;;;;;;13.10;99.90;;;;;;5129039;27;20404;-70
2023/05/06 07:46:46;;;;;;;;;;;13.30;99.90;;;;;;5118561;27;19919;-70
2023/05/06 07:49:12;;;;;;;;;;;13.40;99.90;;;;;;5122210;27;20358;-69
2023/05/06 07:51:38;;;;;;;;;;;13.50;99.90;;;;;;5115769;27;19963;-70
2023/05/06 07:54:03;;;;;;;;;;;13.60;99.90;;;;;;5120657;27;19923;-71
2023/05/06 07:56:29;;;;;;;;;;;13.70;99.90;;;;;;5116080;27;19923;-71
2023/05/06 07:58:55;;;;;;;;;;;13.80;99.90;;;;;;5117929;27;20373;-71
2023/05/06 08:01:20;;;;;;;;;;;14.00;99.90;;;;;;5098923;27;19915;-71
2023/05/06 08:03:46;;;;;;;;;;;14.10;99.90;;;;;;5112251;27;19958;-71
2023/05/06 08:06:11;;;;;;;;;;;14.30;99.90;;;;;;5118984;27;19919;-71
2023/05/06 08:08:37;;;;;;;;;;;14.30;99.90;;;;;;5116402;27;19920;-72
2023/05/06 08:11:03;;;;;;;;;;;14.30;99.90;;;;;;5115929;27;20283;-72
2023/05/06 08:13:29;;;;;;;;;;;14.40;99.90;;;;;;5125952;27;20005;-72
2023/05/06 08:15:54;;;;;;;;;;;14.60;99.90;;;;;;5111747;27;19972;-72
2023/05/06 08:18:20;;;;;;;;;;;14.70;99.90;;;;;;5116573;27;20350;-71
2023/05/06 08:20:46;;;;;;;;;;;14.90;99.90;;;;;;5136173;27;20262;-72
2023/05/06 08:23:11;;;;;;;;;;;15.40;99.90;;;;;;5109195;27;20695;-72
2023/05/06 08:25:37;;;;;;;;;;;15.80;99.90;;;;;;5116859;27;19945;-72
2023/05/06 08:28:02;;;;;;;;;;;16.00;99.90;;;;;;5118701;27;19920;-71
2023/05/06 08:30:28;;;;;;;;;;;16.30;99.90;;;;;;5117844;27;20254;-72
2023/05/06 08:32:54;;;;;;;;;;;16.50;99.90;;;;;;5117802;27;19924;-72
2023/05/06 08:35:20;;;;;;;;;;;16.70;99.90;;;;;;5120293;27;19926;-72
2023/05/06 08:37:45;;;;;;;;;;;16.70;99.90;;;;;;5123307;27;19915;-72
2023/05/06 08:40:16;;;;;;;;;;;16.70;99.90;;;;;;5133714;27;20388;-72
2023/05/06 08:42:44;;;;;;;;;;;16.90;99.90;;;;;;5128264;27;19919;-72
2023/05/06 08:45:10;;;;;;;;;;;17.10;99.90;;;;;;5094331;28;20006;-70
2023/05/06 08:47:35;;;;;;;;;;;17.10;99.90;;;;;;5110465;28;20011;-70
2023/05/06 08:50:01;;;;;;;;;;;17.20;99.90;;;;;;5133764;27;20292;-69
2023/05/06 08:52:27;;;;;;;;;;;17.30;99.90;;;;;;5129644;27;19961;-70
2023/05/06 08:54:59;;;;;;;;;;;17.40;99.90;;;;;;5121351;27;19927;-70
2023/05/06 08:57:28;;;;;;;;;;;17.60;99.90;;;;;;5151204;27;19973;-70
2023/05/06 08:59:53;;;;;;;;;;;17.50;99.90;;;;;;5114984;27;19919;-70
2023/05/06 09:02:20;;;;;;;;;;;17.60;99.90;;;;;;5128593;27;20383;-70
2023/05/06 09:04:46;;;;;;;;;;;17.70;99.90;;;;;;5103939;28;19979;-70
2023/05/06 09:07:12;;;;;;;;;;;17.90;99.90;;;;;;5115856;27;19916;-70
2023/05/06 09:09:37;;;;;;;;;;;18.00;99.90;;;;;;5116016;27;19930;-70
2023/05/06 09:12:04;;;;;;;;;;;18.30;99.90;;;;;;5109658;27;19920;-69
2023/05/06 09:14:30;;;;;;;;;;;18.40;99.90;;;;;;5101611;28;19915;-69
2023/05/06 09:16:56;;;;;;;;;;;18.50;99.90;;;;;;5110199;27;20374;-69
2023/05/06 09:19:22;;;;;;;;;;;18.80;99.90;;;;;;5128002;27;19930;-68
2023/05/06 09:21:49;;;;;;;;;;;18.90;99.90;;;;;;5144630;27;19984;-69
2023/05/06 09:24:15;;;;;;;;;;;19.00;99.90;;;;;;5127167;27;20408;-69
2023/05/06 09:26:42;;;;;;;;;;;19.20;99.90;;;;;;5116648;28;19960;-69
2023/05/06 09:29:08;;;;;;;;;;;19.30;99.90;;;;;;5126286;27;19925;-69
2023/05/06 09:31:39;;;;;;;;;;;19.30;99.90;;;;;;5126743;27;20007;-69
2023/05/06 09:34:04;;;;;;;;;;;19.60;99.90;;;;;;5121434;28;19931;-70
2023/05/06 09:36:30;;;;;;;;;;;19.70;99.90;;;;;;5127398;27;19915;-70
2023/05/06 09:38:56;;;;;;;;;;;20.00;99.90;;;;;;5122658;27;19915;-69
2023/05/06 09:41:25;;;;;;;;;;;20.00;99.90;;;;;;5127593;27;19925;-70
2023/05/06 09:43:52;;;;;;;;;;;19.80;99.90;;;;;;5127451;27;20296;-69
2023/05/06 09:46:18;;;;;;;;;;;20.00;99.90;;;;;;5104730;27;19915;-69
2023/05/06 09:48:44;;;;;;;;;;;20.30;99.90;;;;;;5139789;27;19982;-70
2023/05/06 09:51:10;;;;;;;;;;;20.40;99.90;;;;;;5132471;27;19919;-70
2023/05/06 09:53:36;;;;;;;;;;;20.20;99.90;;;;;;5105396;28;20371;-69
2023/05/06 09:56:02;;;;;;;;;;;20.00;99.90;;;;;;5125509;27;19953;-69
2023/05/06 09:58:29;;;;;;;;;;;19.80;99.90;;;;;;5134583;27;19970;-69
2023/05/06 10:00:54;;;;;;;;;;;19.50;99.90;;;;;;5110511;27;19976;-70
2023/05/06 10:03:20;;;;;;;;;;;19.40;99.90;;;;;;5139989;27;20320;-70
2023/05/06 10:05:46;;;;;;;;;;;19.30;99.90;;;;;;5115166;27;19920;-70
2023/05/06 10:08:14;;;;;;;;;;;19.50;99.90;;;;;;5105723;27;19958;-69
2023/05/06 10:10:40;;;;;;;;;;;19.50;99.90;;;;;;5138037;27;19923;-69
2023/05/06 10:13:06;;;;;;;;;;;19.50;99.90;;;;;;5143278;27;20402;-69
2023/05/06 10:15:32;;;;;;;;;;;19.50;99.90;;;;;;5152737;27;20040;-68
2023/05/06 10:17:59;;;;;;;;;;;19.70;99.90;;;;;;5151927;27;19919;-69
2023/05/06 10:20:25;;;;;;;;;;;19.90;99.90;;;;;;5132910;27;19916;-69
2023/05/06 10:22:50;;;;;;;;;;;20.20;99.90;;;;;;5149642;27;19922;-69
2023/05/06 10:25:19;;;;;;;;;;;20.50;99.90;;;;;;5134935;27;19919;-69
2023/05/06 10:27:47;;;;;;;;;;;20.50;99.90;;;;;;5132025;27;19920;-68
2023/05/06 10:30:15;;;;;;;;;;;20.60;99.90;;;;;;5124840;27;20450;-69
2023/05/06 10:32:41;;;;;;;;;;;20.60;59.80;;;;;;5141514;27;19930;-69
2023/05/06 10:35:19;;;;;;;;;;;20.90;99.90;;;;;;5123881;27;19916;-69
2023/05/06 10:37:45;;;;;;;;;;;20.70;43.00;;;;;;5115258;27;20003;-69
2023/05/06 10:40:11;;;;;;;;;;;21.00;99.90;;;;;;5122155;27;20405;-70
2023/05/06 10:42:37;;;;;;;;;;;21.10;1.00;;;;;;5131263;27;20007;-70
2023/05/06 10:45:03;;;;;;;;;;;21.30;94.90;;;;;;5128076;27;19919;-69
2023/05/06 10:47:54;;;;;;;;;;;21.60;99.90;;;;;;5128478;27;19966;-69
2023/05/06 10:50:24;;;;;;;;;;;21.60;1.00;;;;;;5147863;27;19919;-70
2023/05/06 10:52:54;;;;;;;;;;;21.80;35.50;;;;;;5137968;27;19929;-70
2023/05/06 10:55:38;;;;;;;;;;;22.10;1.00;;;;;;5132755;27;19950;-70
2023/05/06 10:58:09;;;;;;;;;;;22.20;51.30;;;;;;5116206;27;19991;-69
2023/05/06 11:00:35;;;;;;;;;;;22.70;1.00;;;;;;5151974;27;19915;-69
2023/05/06 11:03:11;;;;;;;;;;;22.80;53.40;;;;;;5138406;27;19919;-70
2023/05/06 11:05:47;;;;;;;;;;;22.70;99.90;;;;;;5132510;27;19962;-69
2023/05/06 11:08:13;;;;;;;;;;;22.40;99.90;;;;;;5147548;27;19919;-70
2023/05/06 11:10:39;;;;;;;;;;;22.00;99.90;;;;;;5132576;27;19923;-70
2023/05/06 11:13:17;;;;;;;;;;;21.30;99.90;;;;;;5145876;27;19914;-70
2023/05/06 11:15:45;;;;;;;;;;;20.90;99.90;;;;;;5153075;27;20661;-69
2023/05/06 11:18:35;;;;;;;;;;;20.50;99.90;;;;;;5139012;27;19941;-70
2023/05/06 11:21:01;;;;;;;;;;;20.30;1.00;;;;;;5128746;27;19920;-69
2023/05/06 11:23:42;;;;;;;;;;;20.10;1.00;;;;;;5142038;27;19926;-69
2023/05/06 11:26:08;;;;;;;;;;;20.10;1.00;;;;;;5133898;27;19919;-69
2023/05/06 11:28:34;;;;;;;;;;;20.10;1.00;;;;;;5152884;27;19915;-69
2023/05/06 11:31:00;;;;;;;;;;;20.10;1.00;;;;;;5149610;27;19974;-69
2023/05/06 11:33:30;;;;;;;;;;;20.00;1.00;;;;;;5132105;27;19997;-69
2023/05/06 11:35:55;;;;;;;;;;;19.90;99.90;;;;;;5135271;27;19962;-69
2023/05/06 11:38:21;;;;;;;;;;;19.80;1.00;;;;;;5152720;27;19971;-70
2023/05/06 11:40:47;;;;;;;;;;;19.70;1.00;;;;;;5150996;27;19922;-69
2023/05/06 11:43:13;;;;;;;;;;;19.60;1.00;;;;;;5132385;27;19938;-69
2023/05/06 11:45:49;;;;;;;;;;;19.60;1.00;;;;;;5115868;27;19915;-70
2023/05/06 11:48:16;;;;;;;;;;;19.50;1.00;;;;;;5152543;27;19933;-70
2023/05/06 11:50:46;;;;;;;;;;;19.50;1.00;;;;;;5152470;27;19919;-69
2023/05/06 11:53:12;;;;;;;;;;;19.30;28.90;;;;;;5150369;27;19923;-70
2023/05/06 11:55:37;;;;;;;;;;;19.10;4.40;;;;;;5133554;27;19919;-70
2023/05/06 11:58:03;;;;;;;;;;;18.90;25.60;;;;;;5149029;27;19918;-69
2023/05/06 12:00:29;;;;;;;;;;;18.70;90.80;;;;;;5152200;27;20243;-69
2023/05/06 12:02:55;;;;;;;;;;;18.50;99.90;;;;;;5149985;27;19922;-70
2023/05/06 12:05:21;;;;;;;;;;;18.30;99.90;;;;;;5152010;27;20006;-71
2023/05/06 12:07:47;;;;;;;;;;;18.00;99.90;;;;;;5146437;27;20342;-71
2023/05/06 12:10:13;;;;;;;;;;;17.70;99.90;;;;;;5152074;27;20005;-71
2023/05/06 12:12:38;;;;;;;;;;;17.60;99.90;;;;;;5139742;27;19973;-71
2023/05/06 12:15:04;;;;;;;;;;;17.40;99.90;;;;;;5131514;27;19927;-71
2023/05/06 12:17:30;;;;;;;;;;;17.10;99.90;;;;;;5137707;27;20300;-71
2023/05/06 12:19:55;;;;;;;;;;;16.90;99.90;;;;;;5097107;27;19919;-71
2023/05/06 12:22:23;;;;;;;;;;;16.80;99.90;;;;;;5138561;27;19919;-71
2023/05/06 12:24:49;;;;;;;;;;;16.50;99.90;;;;;;5151768;27;20389;-71
2023/05/06 12:27:47;;;;;;;;;;;16.00;99.90;;;;;;5143766;27;19927;-70
2023/05/06 12:30:12;;;;;;;;;;;15.70;99.90;;;;;;5095511;27;20404;-71
2023/05/06 12:33:00;;;;;;;;;;;15.30;99.90;;;;;;5146561;27;19919;-71
2023/05/06 12:35:27;;;;;;;;;;;15.20;99.90;;;;;;5145326;27;20255;-71
2023/05/06 12:37:53;;;;;;;;;;;15.30;99.90;;;;;;5141588;27;20042;-72
2023/05/06 12:40:18;;;;;;;;;;;15.20;99.90;;;;;;5113577;27;19941;-71
2023/05/06 12:42:44;;;;;;;;;;;15.10;99.90;;;;;;5139029;27;20025;-71
2023/05/06 12:45:13;;;;;;;;;;;15.10;99.90;;;;;;5151578;27;20366;-71
2023/05/06 12:47:50;;;;;;;;;;;15.10;99.90;;;;;;5140695;27;19919;-71
2023/05/06 12:50:29;;;;;;;;;;;15.20;99.90;;;;;;5151341;27;19918;-70
2023/05/06 12:52:54;;;;;;;;;;;15.20;99.90;;;;;;5145543;27;19930;-70
2023/05/06 12:55:22;;;;;;;;;;;15.20;99.90;;;;;;5151232;27;20222;-71
2023/05/06 12:57:48;;;;;;;;;;;15.20;99.90;;;;;;5139062;27;19930;-71
2023/05/06 13:00:14;;;;;;;;;;;15.20;99.90;;;;;;5151381;27;19919;-71
2023/05/06 13:02:40;;;;;;;;;;;15.20;99.90;;;;;;5145229;27;19915;-71
2023/05/06 13:05:06;;;;;;;;;;;15.10;99.90;;;;;;5130542;27;20325;-71
2023/05/06 13:07:31;;;;;;;;;;;15.00;99.90;;;;;;5143071;27;20271;-71
2023/05/06 13:09:57;;;;;;;;;;;14.90;99.90;;;;;;5115578;27;20227;-70
2023/05/06 13:12:22;;;;;;;;;;;15.00;99.90;;;;;;5149301;27;19961;-72
2023/05/06 13:14:48;;;;;;;;;;;14.80;99.90;;;;;;5112384;28;19985;-71
2023/05/06 13:17:13;;;;;;;;;;;14.70;99.90;;;;;;5128312;27;20458;-70
2023/05/06 13:19:39;;;;;;;;;;;14.60;99.90;;;;;;5133808;27;19920;-70
2023/05/06 13:22:05;;;;;;;;;;;14.50;99.90;;;;;;5120809;27;19920;-71
2023/05/06 13:24:31;;;;;;;;;;;14.40;99.90;;;;;;5125123;27;19969;-71
2023/05/06 13:26:59;;;;;;;;;;;14.30;99.90;;;;;;5129928;27;19983;-71
2023/05/06 13:29:25;;;;;;;;;;;14.30;99.90;;;;;;5118766;28;20014;-71
2023/05/06 13:31:51;;;;;;;;;;;14.30;99.90;;;;;;5114872;27;20002;-71
2023/05/06 13:34:16;;;;;;;;;;;14.40;99.90;;;;;;5135333;27;19919;-71
2023/05/06 13:36:42;;;;;;;;;;;14.40;99.90;;;;;;5128387;27;19915;-71
2023/05/06 13:39:08;;;;;;;;;;;14.50;99.90;;;;;;5131337;27;19919;-71
2023/05/06 13:41:34;;;;;;;;;;;14.60;99.90;;;;;;5129583;27;19919;-71
2023/05/06 13:43:59;;;;;;;;;;;14.70;99.90;;;;;;5138873;27;20374;-71
2023/05/06 13:46:28;;;;;;;;;;;14.80;99.90;;;;;;5125028;27;19926;-71
2023/05/06 13:48:53;;;;;;;;;;;14.80;99.90;;;;;;5110100;28;19919;-71
2023/05/06 13:51:19;;;;;;;;;;;14.90;99.90;;;;;;5129698;28;19928;-71
2023/05/06 13:53:45;;;;;;;;;;;15.10;99.90;;;;;;5132493;27;19942;-71
2023/05/06 13:56:10;;;;;;;;;;;15.20;99.90;;;;;;5131056;27;19934;-71
2023/05/06 13:58:36;;;;;;;;;;;15.50;99.90;;;;;;5134912;27;19937;-71
2023/05/06 14:01:02;;;;;;;;;;;15.60;99.90;;;;;;5146692;27;19918;-71
2023/05/06 14:03:28;;;;;;;;;;;15.70;99.90;;;;;;5115597;27;20377;-70
2023/05/06 14:05:53;;;;;;;;;;;15.90;99.90;;;;;;5146170;27;19922;-70
2023/05/06 14:08:19;;;;;;;;;;;16.20;99.90;;;;;;5132039;27;19919;-70
2023/05/06 14:10:45;;;;;;;;;;;16.50;99.90;;;;;;5137820;27;19923;-70
2023/05/06 14:13:10;;;;;;;;;;;16.60;99.90;;;;;;5122627;27;19977;-71
2023/05/06 14:15:36;;;;;;;;;;;16.70;99.90;;;;;;5112677;27;20331;-71